Time;durP1;ratioP1;P1;durP2;ratioP2;P2;SDS_P1;SDS_P2;PMS_P1;PMS_P2;Temp;Humidity;BMP_temperature;BMP_pressure;BME280_temperature;BME280_humidity;BME280_pressure;Samples;Min_cycle;Max_cycle;Signal;HPM_P1;HPM_P2
2022/05/04 00:01:55;;;;;;;4.17;2.77;;;;;;;9.27;93.46;100924.97;4947276;29;20243;-72
2022/05/04 00:04:22;;;;;;;3.40;3.10;;;;;;;9.27;92.94;100925.81;4940449;29;20580;-72
2022/05/04 00:06:48;;;;;;;3.30;2.77;;;;;;;9.30;92.62;100924.91;4947966;28;20209;-72
2022/05/04 00:09:15;;;;;;;3.80;2.77;;;;;;;9.31;93.17;100923.19;4944382;29;20217;-72
2022/05/04 00:11:41;;;;;;;2.53;2.30;;;;;;;9.34;93.92;100921.38;4937983;28;20216;-71
2022/05/04 00:14:07;;;;;;;3.53;3.23;;;;;;;9.37;93.29;100920.47;4945251;29;20233;-71
2022/05/04 00:16:34;;;;;;;3.13;2.83;;;;;;;9.37;93.75;100920.47;4938556;29;20214;-72
2022/05/04 00:19:02;;;;;;;3.67;2.60;;;;;;;9.35;91.54;100922.25;4947932;28;20239;-71
2022/05/04 00:21:28;;;;;;;3.93;2.67;;;;;;;9.37;91.56;100912.66;4946423;28;20210;-72
2022/05/04 00:23:54;;;;;;;4.13;2.80;;;;;;;9.35;89.34;100914.44;4940346;28;20202;-71
2022/05/04 00:26:21;;;;;;;4.17;3.10;;;;;;;9.38;90.56;100920.44;4936027;29;20233;-72
2022/05/04 00:28:47;;;;;;;3.60;3.03;;;;;;;9.38;88.96;100917.84;4941048;29;20558;-72
2022/05/04 00:31:13;;;;;;;3.63;3.27;;;;;;;9.41;89.89;100911.72;4943362;28;20695;-72
2022/05/04 00:33:40;;;;;;;5.87;3.07;;;;;;;9.42;90.90;100908.25;4940904;29;20206;-71
2022/05/04 00:36:08;;;;;;;3.17;2.63;;;;;;;9.42;90.10;100916.03;4941446;29;20289;-72
2022/05/04 00:38:34;;;;;;;3.40;2.97;;;;;;;9.45;88.08;100926.41;4941331;28;20240;-72
2022/05/04 00:41:00;;;;;;;3.70;3.00;;;;;;;9.46;88.07;100929.00;4936997;29;20203;-72
2022/05/04 00:43:27;;;;;;;5.27;3.17;;;;;;;9.48;88.02;100921.16;4934136;29;20282;-72
2022/05/04 00:45:53;;;;;;;3.80;3.10;;;;;;;9.50;89.31;100924.59;4941837;29;20827;-72
2022/05/04 00:48:20;;;;;;;4.33;3.50;;;;;;;9.51;91.60;100926.28;4944387;28;20277;-71
2022/05/04 00:50:49;;;;;;;4.63;2.90;;;;;;;9.51;92.99;100922.84;4943470;29;20323;-71
2022/05/04 00:53:17;;;;;;;3.93;3.00;;;;;;;9.49;93.67;100922.88;4951277;29;20200;-72
2022/05/04 00:55:43;;;;;;;3.27;2.93;;;;;;;9.46;93.96;100925.50;4936585;29;20218;-72
2022/05/04 01:01:07;;;;;;;3.63;3.00;;;;;;;9.39;93.17;100924.78;4895790;29;20799;-72
2022/05/04 01:03:33;;;;;;;3.10;2.80;;;;;;;9.34;94.48;100930.91;4934204;29;20221;-71
2022/05/04 01:05:59;;;;;;;3.17;2.87;;;;;;;9.32;94.76;100923.13;4935718;29;20206;-72
2022/05/04 01:08:27;;;;;;;3.27;2.97;;;;;;;9.32;94.56;100930.94;4945371;29;20303;-72
2022/05/04 01:10:54;;;;;;;3.57;3.27;;;;;;;9.33;93.98;100926.63;4935735;29;20207;-72
2022/05/04 01:13:21;;;;;;;3.13;2.80;;;;;;;9.32;93.89;100922.28;4932417;29;20230;-71
2022/05/04 01:15:48;;;;;;;4.23;2.90;;;;;;;9.32;94.43;100922.28;4942250;29;20578;-71
2022/05/04 01:18:14;;;;;;;3.37;2.90;;;;;;;9.33;94.46;100924.84;4937702;29;20215;-72
2022/05/04 01:20:41;;;;;;;3.13;2.83;;;;;;;9.34;94.28;100916.19;4944857;29;20216;-72
2022/05/04 01:23:10;;;;;;;3.70;3.40;;;;;;;9.32;94.69;100923.13;4944989;29;20225;-72
2022/05/04 01:25:36;;;;;;;3.37;3.07;;;;;;;9.29;95.17;100918.84;4939709;28;20217;-72
2022/05/04 01:28:05;;;;;;;3.40;3.00;;;;;;;9.29;95.32;100915.41;4944485;28;20702;-71
2022/05/04 01:30:32;;;;;;;3.47;3.03;;;;;;;9.27;95.49;100915.41;4946011;29;20248;-72
2022/05/04 01:32:59;;;;;;;4.30;3.10;;;;;;;9.28;95.78;100921.47;4933276;29;20646;-72
2022/05/04 01:35:25;;;;;;;3.30;2.87;;;;;;;9.25;94.66;100922.41;4942597;29;20210;-70
2022/05/04 01:37:52;;;;;;;3.70;3.40;;;;;;;9.26;96.34;100929.28;4939244;29;20230;-71
2022/05/04 01:40:20;;;;;;;5.03;3.00;;;;;;;9.22;94.69;100932.00;4940451;29;20207;-71
2022/05/04 01:42:46;;;;;;;3.23;2.93;;;;;;;9.21;95.19;100932.84;4937080;29;20206;-71
2022/05/04 01:45:13;;;;;;;5.67;3.30;;;;;;;9.25;95.89;100934.53;4936129;29;20226;-72
2022/05/04 01:47:40;;;;;;;4.37;3.30;;;;;;;9.28;95.80;100934.47;4942564;29;20230;-71
2022/05/04 01:50:07;;;;;;;3.87;3.07;;;;;;;9.24;95.86;100928.47;4938193;29;20211;-72
2022/05/04 01:52:34;;;;;;;6.53;3.40;;;;;;;9.23;96.45;100924.16;4937204;28;20212;-71
2022/05/04 01:55:01;;;;;;;3.53;3.23;;;;;;;9.36;98.00;100917.00;4934563;29;20731;-72
2022/05/04 01:57:28;;;;;;;7.20;3.27;;;;;;;9.32;95.66;100923.13;4934698;29;20218;-72
2022/05/04 01:59:55;;;;;;;8.00;3.47;;;;;;;9.28;95.19;100921.47;4936929;28;20191;-72
2022/05/04 02:02:21;;;;;;;4.03;2.73;;;;;;;9.25;94.26;100929.31;4942409;29;20638;-71
2022/05/04 02:04:49;;;;;;;3.57;3.27;;;;;;;9.26;93.49;100936.25;4939842;29;20208;-71
2022/05/04 02:07:16;;;;;;;3.90;3.50;;;;;;;9.27;93.60;100937.97;4943107;29;20247;-72
2022/05/04 02:09:42;;;;;;;4.63;3.20;;;;;;;9.35;96.83;100937.84;4930103;29;20217;-72
2022/05/04 02:12:09;;;;;;;3.17;2.70;;;;;;;9.41;97.29;100930.81;4934212;29;20202;-71
2022/05/04 02:14:37;;;;;;;4.30;3.20;;;;;;;9.45;97.68;100929.00;4941234;29;20227;-71
2022/05/04 02:17:04;;;;;;;3.97;3.37;;;;;;;9.39;95.85;100924.78;4947746;28;20266;-71
2022/05/04 02:19:30;;;;;;;4.10;3.53;;;;;;;9.38;94.58;100919.59;4940670;28;20225;-72
2022/05/04 02:21:57;;;;;;;3.43;3.13;;;;;;;9.37;94.81;100931.72;4940070;29;20206;-72
2022/05/04 02:24:23;;;;;;;5.60;4.03;;;;;;;9.36;93.72;100927.41;4938026;29;20317;-71
2022/05/04 02:26:49;;;;;;;5.30;3.60;;;;;;;9.38;93.71;100930.84;4940059;29;20274;-70
2022/05/04 02:29:16;;;;;;;3.73;3.43;;;;;;;9.41;94.30;100922.13;4937220;29;20225;-71
2022/05/04 02:31:44;;;;;;;5.20;3.83;;;;;;;9.40;96.42;100925.63;4935914;29;20208;-72
2022/05/04 02:34:10;;;;;;;5.43;3.23;;;;;;;9.38;97.69;100922.19;4938179;29;20217;-72
2022/05/04 02:39:20;;;;;;;5.00;3.57;;;;;;;9.31;100.00;100926.63;4942168;29;20230;-71
2022/05/04 02:41:48;;;;;;;3.10;2.80;;;;;;;9.33;100.00;100927.47;4945906;29;20721;-71
2022/05/04 02:44:15;;;;;;;3.47;3.17;;;;;;;9.33;100.00;100931.81;4946658;28;20205;-72
2022/05/04 02:46:41;;;;;;;3.37;3.07;;;;;;;9.31;99.69;100931.00;4940423;29;20208;-72
2022/05/04 02:49:09;;;;;;;4.03;3.63;;;;;;;9.33;99.63;100924.00;4944417;29;20752;-72
2022/05/04 02:51:35;;;;;;;4.10;3.27;;;;;;;9.31;100.00;100929.25;4939639;28;20216;-72
2022/05/04 02:54:03;;;;;;;5.17;3.83;;;;;;;9.30;100.00;100924.91;4947704;29;20209;-71
2022/05/04 02:56:29;;;;;;;4.67;3.97;;;;;;;9.27;98.64;100931.03;4939001;28;20663;-72
2022/05/04 02:58:56;;;;;;;4.50;3.40;;;;;;;9.28;99.37;100930.13;4945631;28;20226;-72
2022/05/04 03:04:08;;;;;;;8.73;6.33;;;;;;;9.20;100.00;100934.63;4944048;28;20252;-72
2022/05/04 03:06:36;;;;;;;9.87;7.63;;;;;;;9.18;100.00;100938.97;4943681;29;20213;-70
2022/05/04 03:09:03;;;;;;;10.70;7.47;;;;;;;9.20;100.00;100929.41;4952825;28;20220;-71
2022/05/04 03:14:14;;;;;;;7.70;5.53;;;;;;;9.13;100.00;100935.59;4940933;29;20220;-72
2022/05/04 03:16:40;;;;;;;6.60;4.53;;;;;;;9.11;100.00;100924.31;4945589;28;20269;-72
2022/05/04 03:19:07;;;;;;;6.10;4.77;;;;;;;9.08;100.00;100938.25;4950359;29;20215;-71
2022/05/04 03:21:35;;;;;;;7.47;5.17;;;;;;;9.06;100.00;100932.22;4942050;28;20217;-72
2022/05/04 03:24:02;;;;;;;3.90;3.50;;;;;;;9.07;100.00;100936.53;4943582;29;20201;-72
2022/05/04 03:26:29;;;;;;;9.07;3.97;;;;;;;9.10;100.00;100931.28;4942665;29;20207;-72
2022/05/04 03:28:56;;;;;;;4.60;3.90;;;;;;;9.08;100.00;100935.66;4942526;29;20218;-72
2022/05/04 03:31:23;;;;;;;4.43;3.43;;;;;;;9.09;100.00;100939.09;4943528;29;20203;-72
2022/05/04 03:33:50;;;;;;;4.10;3.10;;;;;;;9.05;100.00;100938.28;4942310;29;20213;-72
2022/05/04 03:36:16;;;;;;;5.73;3.77;;;;;;;9.06;100.00;100937.41;4948715;29;20204;-71
2022/05/04 03:38:45;;;;;;;4.27;3.30;;;;;;;9.07;100.00;100943.47;4943038;29;20226;-72
2022/05/04 03:41:11;;;;;;;5.90;4.27;;;;;;;9.10;100.00;100944.28;4952522;28;20810;-71
2022/05/04 03:43:37;;;;;;;4.53;3.47;;;;;;;9.07;100.00;100936.53;4948412;28;20618;-71
2022/05/04 03:46:15;;;;;;;4.53;3.40;;;;;;;9.01;100.00;100939.22;4946449;29;20213;-72
2022/05/04 03:48:42;;;;;;;4.77;3.80;;;;;;;9.05;100.00;100940.03;4939110;29;20698;-72
2022/05/04 03:51:09;;;;;;;3.67;3.37;;;;;;;9.08;100.00;100938.25;4943492;29;20319;-70
2022/05/04 03:53:36;;;;;;;5.73;3.83;;;;;;;9.13;100.00;100932.09;4950182;28;20323;-72
2022/05/04 03:56:04;;;;;;;5.67;4.90;;;;;;;9.15;100.00;100939.03;4935994;29;20222;-72
2022/05/04 03:58:30;;;;;;;6.90;4.47;;;;;;;9.19;100.00;100937.22;4942808;29;20843;-70
2022/05/04 04:00:57;;;;;;;10.13;6.70;;;;;;;9.17;100.00;100939.84;4948935;28;20685;-70
2022/05/04 04:03:23;;;;;;;5.10;4.60;;;;;;;9.17;99.97;100946.81;4945634;28;20210;-71
2022/05/04 04:05:50;;;;;;;8.10;5.10;;;;;;;9.19;98.62;100943.28;4942237;28;20219;-71
2022/05/04 04:08:16;;;;;;;7.60;6.30;;;;;;;9.23;97.52;100944.09;4936306;29;20216;-71
2022/05/04 04:10:42;;;;;;;10.90;6.37;;;;;;;9.27;96.71;100951.00;4945994;28;20210;-72
2022/05/04 04:13:10;;;;;;;9.33;6.17;;;;;;;9.32;96.85;100950.91;4947142;29;20685;-72
2022/05/04 04:15:36;;;;;;;8.03;6.10;;;;;;;9.36;96.60;100948.25;4941962;29;20210;-72
2022/05/04 04:18:03;;;;;;;6.87;4.87;;;;;;;9.42;96.30;100949.88;4938942;28;20228;-72
2022/05/04 04:23:14;;;;;;;5.67;4.97;;;;;;;9.54;93.01;100957.47;4948243;28;20205;-71
2022/05/04 04:25:40;;;;;;;5.97;4.80;;;;;;;9.61;91.98;100963.47;4943002;29;20219;-71
2022/05/04 04:28:07;;;;;;;5.73;4.60;;;;;;;9.68;90.50;100961.63;4947100;28;20236;-72
2022/05/04 04:30:34;;;;;;;4.57;4.10;;;;;;;9.72;90.13;100964.13;4945791;28;20191;-72
2022/05/04 04:33:00;;;;;;;7.63;4.33;;;;;;;9.77;90.67;100966.66;4942402;29;20209;-72
2022/05/04 04:35:27;;;;;;;5.30;4.50;;;;;;;9.82;93.11;100968.28;4956081;28;20194;-72
2022/05/04 04:37:53;;;;;;;5.97;4.17;;;;;;;9.82;97.18;100964.84;4945356;28;20993;-72
2022/05/04 04:40:20;;;;;;;4.20;3.60;;;;;;;9.80;99.50;100964.00;4944193;28;20225;-72
2022/05/04 04:42:46;;;;;;;6.90;3.93;;;;;;;9.77;100.00;100970.09;4945587;29;20210;-71
2022/05/04 04:45:13;;;;;;;5.20;4.10;;;;;;;9.76;98.57;100968.41;4943446;28;20221;-71
2022/05/04 04:47:41;;;;;;;5.67;4.07;;;;;;;9.79;100.00;100970.09;4941390;29;20226;-71
2022/05/04 04:50:08;;;;;;;4.37;3.90;;;;;;;9.85;100.00;100983.88;4940038;29;20198;-71
2022/05/04 04:52:35;;;;;;;4.73;4.20;;;;;;;9.89;99.84;100971.66;4945652;28;20570;-72
2022/05/04 04:55:01;;;;;;;4.90;3.90;;;;;;;9.93;98.93;100975.06;4940657;29;20655;-71
2022/05/04 04:57:28;;;;;;;4.87;4.37;;;;;;;9.95;98.85;100974.13;4941218;29;20570;-70
2022/05/04 04:59:54;;;;;;;4.87;4.30;;;;;;;10.01;98.88;100971.44;4943561;28;20225;-72
2022/05/04 05:02:20;;;;;;;5.43;4.63;;;;;;;10.01;97.70;100974.03;4946615;28;20203;-71
2022/05/04 05:04:48;;;;;;;9.97;4.60;;;;;;;10.05;95.37;100980.03;4939168;29;20207;-72
2022/05/04 05:07:14;;;;;;;7.43;4.53;;;;;;;10.08;90.73;100981.72;4936385;29;20198;-72
2022/05/04 05:09:41;;;;;;;6.70;4.63;;;;;;;10.10;87.58;100979.97;4943799;28;20732;-71
2022/05/04 05:12:08;;;;;;;7.53;4.70;;;;;;;10.15;84.98;100984.22;4936132;28;20226;-70
2022/05/04 05:17:19;;;;;;;8.43;5.00;;;;;;;10.24;82.68;100980.56;4937833;29;20674;-71
2022/05/04 05:19:45;;;;;;;8.53;4.57;;;;;;;10.32;82.45;100983.03;4940981;28;20216;-72
2022/05/04 05:22:13;;;;;;;6.97;4.73;;;;;;;10.39;81.56;100982.03;4944432;28;20194;-70
2022/05/04 05:24:39;;;;;;;7.30;4.80;;;;;;;10.48;81.02;100988.81;4938249;29;20853;-70
2022/05/04 05:27:08;;;;;;;7.47;4.83;;;;;;;10.58;81.60;100985.13;4939831;29;20211;-73
2022/05/04 05:29:34;;;;;;;5.70;4.77;;;;;;;10.74;81.46;100990.91;4937612;29;20231;-72
2022/05/04 05:32:01;;;;;;;8.40;4.80;;;;;;;10.92;79.04;101000.06;4942472;28;20206;-72
2022/05/04 05:34:31;;;;;;;6.20;4.47;;;;;;;11.10;77.10;101001.41;4943410;28;20207;-72
2022/05/04 05:36:58;;;;;;;6.07;4.10;;;;;;;11.27;77.27;101001.03;4937225;29;20200;-72
2022/05/04 05:39:26;;;;;;;4.83;4.33;;;;;;;11.42;76.14;101007.69;4940578;28;20229;-69
2022/05/04 05:41:52;;;;;;;6.30;4.60;;;;;;;11.55;75.40;101002.09;4942739;29;20207;-72
2022/05/04 05:44:18;;;;;;;6.47;4.80;;;;;;;11.59;74.15;101007.25;4944561;28;20213;-71
2022/05/04 05:46:45;;;;;;;6.93;4.50;;;;;;;11.58;74.29;101018.63;4939520;28;20210;-72
2022/05/04 05:49:11;;;;;;;5.47;4.33;;;;;;;11.58;73.07;101019.47;4940103;28;20718;-72
2022/05/04 05:51:37;;;;;;;6.33;4.63;;;;;;;11.62;73.02;101015.03;4939315;28;20206;-72
2022/05/04 05:54:04;;;;;;;11.00;4.67;;;;;;;11.66;72.70;101008.81;4944306;28;20207;-72
2022/05/04 05:56:32;;;;;;;7.47;4.27;;;;;;;11.70;72.62;101018.31;4938097;28;20570;-71
2022/05/04 05:58:59;;;;;;;5.50;4.57;;;;;;;11.73;72.65;101013.00;4936889;28;20226;-72
2022/05/04 06:01:25;;;;;;;9.50;4.63;;;;;;;11.82;73.86;101017.13;4937158;28;20560;-71
2022/05/04 06:03:52;;;;;;;6.67;4.47;;;;;;;11.92;74.45;101013.44;4938115;29;20223;-72
2022/05/04 06:06:19;;;;;;;6.67;4.57;;;;;;;12.01;73.92;101018.41;4939671;28;20686;-72
2022/05/04 06:08:45;;;;;;;6.80;4.60;;;;;;;12.04;71.32;101015.72;4941876;28;20226;-70
2022/05/04 06:11:11;;;;;;;5.77;4.60;;;;;;;12.07;70.16;101020.03;4938321;29;20205;-71
2022/05/04 06:13:39;;;;;;;7.50;5.00;;;;;;;12.12;70.68;101020.78;4936473;29;20207;-72
2022/05/04 06:16:06;;;;;;;5.70;4.83;;;;;;;12.16;70.13;101016.31;4938104;29;20206;-72
2022/05/04 06:18:32;;;;;;;8.53;5.10;;;;;;;12.21;70.52;101017.91;4944675;29;20226;-71
2022/05/04 06:20:59;;;;;;;9.73;4.63;;;;;;;12.31;72.78;101013.28;4939862;29;20285;-70
2022/05/04 06:23:25;;;;;;;7.90;4.37;;;;;;;12.36;69.53;101021.00;4938099;29;20295;-72
2022/05/04 06:25:51;;;;;;;7.80;4.50;;;;;;;12.45;70.25;101019.00;4935433;29;20211;-71
2022/05/04 06:28:18;;;;;;;5.40;4.57;;;;;;;12.53;70.66;101026.63;4943776;29;20232;-71
2022/05/04 06:36:14;;;;;;;6.27;4.50;;;;;;;12.71;70.09;101029.63;4940824;29;20700;-72
2022/05/04 06:38:40;;;;;;;5.37;3.90;;;;;;;12.79;68.09;101032.91;4937335;28;20225;-72
2022/05/04 06:41:07;;;;;;;7.57;4.50;;;;;;;12.83;69.90;101027.50;4943200;28;20246;-72
2022/05/04 06:43:33;;;;;;;7.57;4.27;;;;;;;12.90;67.78;101036.03;4943184;29;20211;-72
2022/05/04 06:46:01;;;;;;;7.77;4.40;;;;;;;12.91;66.75;101034.28;4939222;28;20211;-72
2022/05/04 06:48:28;;;;;;;6.80;4.50;;;;;;;13.02;67.88;101034.84;4941932;29;20223;-72
2022/05/04 06:50:54;;;;;;;5.10;3.80;;;;;;;13.06;65.88;101044.31;4942056;29;20207;-72
2022/05/04 06:53:20;;;;;;;5.50;4.20;;;;;;;13.12;65.16;101036.28;4945807;28;20673;-72
2022/05/04 06:55:47;;;;;;;7.23;4.30;;;;;;;13.21;65.83;101033.38;4944088;29;20236;-71
2022/05/04 06:58:13;;;;;;;7.73;4.27;;;;;;;13.34;67.17;101028.63;4947850;28;20218;-72
2022/05/04 07:00:40;;;;;;;7.77;4.43;;;;;;;13.47;64.99;101038.72;4943856;29;20219;-72
2022/05/04 07:03:07;;;;;;;4.43;3.60;;;;;;;13.58;64.38;101039.25;4945887;28;20711;-72
2022/05/04 07:05:34;;;;;;;6.00;4.43;;;;;;;13.73;65.69;101033.50;4940445;29;20216;-72
2022/05/04 07:08:00;;;;;;;7.63;4.57;;;;;;;13.86;63.44;101033.09;4947454;28;20236;-72
2022/05/04 07:10:27;;;;;;;6.60;3.70;;;;;;;13.94;62.68;101042.41;4948206;28;20219;-72
2022/05/04 07:12:53;;;;;;;6.33;4.33;;;;;;;14.07;63.72;101037.63;4946468;29;20206;-71
2022/05/04 07:15:20;;;;;;;9.33;4.17;;;;;;;14.28;64.21;101046.53;4940844;28;20671;-72
2022/05/04 07:17:46;;;;;;;6.57;3.90;;;;;;;14.43;61.16;101046.91;4945121;29;20251;-72
2022/05/04 07:20:14;;;;;;;6.60;4.13;;;;;;;14.44;59.71;101038.97;4946069;28;20213;-71
2022/05/04 07:22:41;;;;;;;6.63;4.30;;;;;;;14.52;61.76;101036.06;4945651;29;20205;-72
2022/05/04 07:25:08;;;;;;;5.47;4.30;;;;;;;14.42;59.07;101038.16;4941449;29;20214;-72
2022/05/04 07:27:34;;;;;;;8.13;4.20;;;;;;;14.55;59.30;101033.34;4949283;29;20201;-72
2022/05/04 07:30:01;;;;;;;5.93;4.00;;;;;;;14.64;60.27;101033.03;4946039;29;20200;-72
2022/05/04 07:32:27;;;;;;;9.40;4.70;;;;;;;14.61;59.45;101038.38;4940031;29;20217;-72
2022/05/04 07:34:54;;;;;;;5.60;3.80;;;;;;;14.64;59.37;101043.53;4943885;29;20216;-71
2022/05/04 07:37:21;;;;;;;8.67;4.53;;;;;;;14.70;58.94;101043.28;4935492;29;20204;-71
2022/05/04 07:42:32;;;;;;;8.43;3.80;;;;;;;14.92;60.97;101045.97;4946436;29;20318;-72
2022/05/04 07:45:00;;;;;;;8.30;4.17;;;;;;;15.01;58.67;101044.78;4939501;29;20201;-70
2022/05/04 07:47:27;;;;;;;6.83;3.87;;;;;;;14.96;57.10;101050.19;4942480;29;20219;-71
2022/05/04 07:49:54;;;;;;;10.00;4.07;;;;;;;15.07;59.85;101048.94;4935860;29;20555;-72
2022/05/04 07:52:22;;;;;;;7.97;4.33;;;;;;;15.16;58.18;101056.47;4940066;28;20208;-72
2022/05/04 07:54:49;;;;;;;7.73;3.80;;;;;;;15.28;57.93;101061.25;4941590;29;20332;-72
2022/05/04 07:57:15;;;;;;;6.30;3.57;;;;;;;15.37;58.20;101059.19;4943724;28;20213;-70
2022/05/04 07:59:42;;;;;;;6.83;3.67;;;;;;;15.48;55.08;101064.88;4936491;29;20216;-71
2022/05/04 08:04:53;;;;;;;6.50;3.17;;;;;;;15.49;54.75;101063.94;4936985;28;20235;-72
2022/05/04 08:07:19;;;;;;;7.63;3.73;;;;;;;15.58;54.63;101068.84;4939856;29;20835;-72
2022/05/04 08:09:47;;;;;;;9.63;4.03;;;;;;;15.61;54.07;101067.88;4941966;28;20221;-72
2022/05/04 08:12:13;;;;;;;6.53;3.63;;;;;;;15.70;54.29;101065.72;4939129;29;20211;-70
2022/05/04 08:14:40;;;;;;;12.40;7.63;;;;;;;15.73;53.70;101061.28;4942624;29;20209;-72
2022/05/04 08:17:07;;;;;;;8.37;3.23;;;;;;;15.79;51.97;101066.28;4936156;29;20207;-72
2022/05/04 08:19:33;;;;;;;3.67;2.63;;;;;;;16.00;51.97;101067.19;4940582;28;20258;-70
2022/05/04 08:22:00;;;;;;;6.00;2.40;;;;;;;16.09;52.69;101072.94;4944077;29;20209;-72
2022/05/04 08:24:27;;;;;;;6.37;3.33;;;;;;;16.14;54.07;101056.09;4933719;29;20213;-72
2022/05/04 08:26:55;;;;;;;5.67;3.80;;;;;;;16.19;50.78;101076.00;4936186;29;20204;-71
2022/05/04 08:29:22;;;;;;;6.63;4.17;;;;;;;16.14;48.94;101071.88;4938467;29;20319;-71
2022/05/04 08:31:48;;;;;;;7.70;3.43;;;;;;;16.23;51.17;101082.00;4939388;29;20205;-72
2022/05/04 08:34:15;;;;;;;4.47;2.40;;;;;;;16.38;48.87;101089.25;4941654;28;20551;-72
2022/05/04 08:36:41;;;;;;;3.93;2.67;;;;;;;16.45;49.42;101076.69;4936456;29;20276;-72
2022/05/04 08:39:09;;;;;;;3.70;2.73;;;;;;;16.52;49.48;101074.63;4936147;28;20601;-72
2022/05/04 08:41:38;;;;;;;5.60;2.73;;;;;;;16.67;50.16;101073.94;4938760;29;20222;-72
2022/05/04 08:44:08;;;;;;;7.30;2.20;;;;;;;16.80;49.16;101076.91;4941072;29;20211;-72
2022/05/04 08:46:36;;;;;;;2.83;2.33;;;;;;;16.87;48.01;101077.47;4939810;29;20591;-71
2022/05/04 08:49:05;;;;;;;3.50;2.20;;;;;;;16.96;48.72;101069.19;4943982;29;20590;-70
2022/05/04 08:51:49;;;;;;;3.43;2.33;;;;;;;16.99;46.08;101071.66;4935774;28;20213;-72
2022/05/04 08:54:19;;;;;;;5.77;2.50;;;;;;;17.03;45.60;101068.81;4946500;28;20666;-72
2022/05/04 08:56:57;;;;;;;3.97;2.70;;;;;;;17.05;45.14;101070.56;4937205;29;20288;-72
2022/05/04 08:59:46;;;;;;;3.97;2.57;;;;;;;17.09;46.24;101064.19;4944687;28;20227;-72
2022/05/04 09:02:19;;;;;;;4.40;2.50;;;;;;;17.11;45.07;101064.97;4936142;29;20199;-72
2022/05/04 09:04:52;;;;;;;3.13;2.17;;;;;;;17.35;45.61;101068.25;4940782;29;20210;-72
2022/05/04 09:07:25;;;;;;;2.37;2.17;;;;;;;17.47;46.21;101064.19;4940711;28;20285;-72
2022/05/04 09:10:06;;;;;;;3.93;1.83;;;;;;;17.67;46.88;101058.78;4941336;29;20211;-73
2022/05/04 09:12:49;;;;;;;1.97;1.73;;;;;;;17.80;45.05;101053.78;4942673;29;20246;-72
2022/05/04 09:18:17;;;;;;;2.57;2.20;;;;;;;17.88;45.15;101056.06;4939682;29;20237;-71
2022/05/04 09:21:04;;;;;;;3.17;2.33;;;;;;;17.83;43.25;101061.50;4941886;29;20215;-72
2022/05/04 09:23:33;;;;;;;4.03;2.47;;;;;;;17.85;45.66;101042.97;4945593;29;20725;-72
2022/05/04 09:26:21;;;;;;;4.43;2.30;;;;;;;17.88;42.95;101053.41;4940779;28;20217;-72
2022/05/04 09:28:50;;;;;;;2.90;2.20;;;;;;;17.87;44.63;101041.16;4943259;29;20254;-72
2022/05/04 09:31:31;;;;;;;4.30;2.70;;;;;;;17.97;43.80;101043.25;4938442;29;20207;-73
2022/05/04 09:34:08;;;;;;;4.23;2.40;;;;;;;18.01;43.03;101043.09;4945009;29;20228;-72
2022/05/04 09:44:54;;;;;;;6.60;2.50;;;;;;;18.13;44.08;101035.44;4938970;29;20206;-72
2022/05/04 09:45:17;;;;;;;2.47;2.07;;;;;;;18.00;45.18;101034.34;4943604;29;20213;-72
2022/05/04 09:47:47;;;;;;;2.67;2.00;;;;;;;18.12;46.09;101033.72;4940052;29;20563;-72
2022/05/04 09:50:15;;;;;;;3.50;2.33;;;;;;;18.35;45.07;101039.59;4948645;29;20199;-70
2022/05/04 09:52:44;;;;;;;3.77;2.10;;;;;;;18.51;44.44;101034.34;4941796;29;20195;-71
2022/05/04 09:55:19;;;;;;;2.73;2.00;;;;;;;18.37;45.78;101034.22;4943085;28;20951;-72
2022/05/04 09:57:57;;;;;;;4.20;2.10;;;;;;;18.27;42.22;101044.41;4942718;29;20676;-72
2022/05/04 10:00:30;;;;;;;2.33;1.97;;;;;;;18.22;44.51;101034.06;4938106;29;20329;-72
2022/05/04 10:03:11;;;;;;;3.57;2.17;;;;;;;18.18;41.54;101045.72;4937212;29;20205;-71
2022/05/04 10:05:47;;;;;;;3.97;2.30;;;;;;;18.06;41.18;101043.72;4957373;28;20617;-71
2022/05/04 10:08:26;;;;;;;4.03;2.17;;;;;;;18.09;43.30;101036.50;4939533;29;20285;-71
2022/05/04 10:11:01;;;;;;;2.87;2.20;;;;;;;18.32;42.35;101037.94;4942955;29;20213;-71
2022/05/04 10:13:53;;;;;;;9.23;6.87;;;;;;;18.66;40.83;101040.59;4936178;29;20207;-71
2022/05/04 10:16:34;;;;;;;3.53;3.23;;;;;;;19.12;40.79;101040.78;4930267;29;20690;-71
2022/05/04 10:19:18;;;;;;;3.00;2.07;;;;;;;19.50;43.37;101024.53;4938131;29;20226;-73
2022/05/04 10:22:05;;;;;;;3.13;2.50;;;;;;;19.46;38.94;101034.44;4938023;28;20318;-71
2022/05/04 10:24:35;;;;;;;4.03;2.20;;;;;;;19.43;39.20;101031.97;4938260;29;20206;-71
2022/05/04 10:27:21;;;;;;;2.97;2.47;;;;;;;19.72;41.70;101032.09;4936375;28;20206;-71
2022/05/04 10:30:34;;;;;;;5.13;2.40;;;;;;;19.96;40.98;101024.53;4941934;29;20242;-71
2022/05/04 10:33:09;;;;;;;3.23;2.20;;;;;;;20.36;42.57;101011.53;4930956;29;20202;-71
2022/05/04 10:35:44;;;;;;;3.67;2.00;;;;;;;20.69;41.72;101013.09;4936976;29;20343;-71
2022/05/04 10:38:24;;;;;;;3.53;2.30;;;;;;;20.66;40.09;101017.75;4940360;28;20329;-73
2022/05/04 10:41:09;;;;;;;3.30;2.53;;;;;;;20.67;38.49;101022.06;4933042;29;20217;-71
2022/05/04 10:43:54;;;;;;;2.50;2.13;;;;;;;20.30;38.50;101019.00;4933914;28;20207;-72
2022/05/04 10:46:36;;;;;;;4.30;3.17;;;;;;;20.12;36.88;101024.50;4934960;29;20294;-71
2022/05/04 10:49:13;;;;;;;4.40;3.43;;;;;;;19.91;37.63;101023.97;4934569;29;20327;-71
2022/05/04 10:51:47;;;;;;;3.50;2.30;;;;;;;20.20;36.97;101024.03;4936192;29;20199;-72
2022/05/04 10:54:56;;;;;;;5.03;2.73;;;;;;;20.34;37.48;101016.09;4935573;29;20209;-71
2022/05/04 10:57:43;;;;;;;4.07;2.80;;;;;;;20.23;36.96;101018.56;4934599;29;20730;-72
2022/05/04 11:00:24;;;;;;;13.37;10.07;;;;;;;20.16;36.73;101022.53;4934673;29;20207;-72
2022/05/04 11:02:58;;;;;;;5.07;4.30;;;;;;;19.98;36.89;101020.03;4935747;29;20227;-71
2022/05/04 11:05:48;;;;;;;5.30;2.70;;;;;;;20.20;37.46;101008.97;4935780;29;20443;-71
2022/05/04 11:08:43;;;;;;;4.03;3.63;;;;;;;20.36;36.40;101018.66;4932880;29;20246;-71
2022/05/04 11:14:02;;;;;;;2.87;2.50;;;;;;;20.45;36.08;100999.53;4930673;28;20926;-71
2022/05/04 11:16:46;;;;;;;2.90;2.60;;;;;;;20.53;38.19;101007.03;4938989;28;20211;-71
2022/05/04 11:19:26;;;;;;;3.17;2.87;;;;;;;20.79;38.83;101002.75;4934487;29;20231;-71
2022/05/04 11:22:02;;;;;;;4.67;2.67;;;;;;;21.05;38.44;100995.81;4934890;28;20211;-71
2022/05/04 11:24:43;;;;;;;3.37;2.60;;;;;;;21.20;38.85;100995.78;4933436;29;20206;-71
2022/05/04 11:27:16;;;;;;;3.80;2.50;;;;;;;21.30;40.77;100987.13;4937118;28;20250;-71
2022/05/04 11:29:55;;;;;;;3.10;2.30;;;;;;;21.23;38.44;100993.78;4937847;29;20186;-71
2022/05/04 11:32:34;;;;;;;3.25;2.45;;;;;;;21.24;39.24;100991.97;4944836;29;20677;-71
2022/05/04 11:35:25;;;;;;;3.40;2.77;;;;;;;21.30;39.90;100994.22;4934261;29;20214;-71
2022/05/04 11:38:25;;;;;;;2.97;2.70;;;;;;;21.14;39.40;100979.31;4941205;29;20230;-71
2022/05/04 11:40:57;;;;;;;2.90;2.60;;;;;;;20.75;39.04;100990.66;4936398;29;20223;-71
2022/05/04 11:43:29;;;;;;;3.17;2.87;;;;;;;20.58;36.46;100987.25;4944426;29;20579;-71
2022/05/04 11:46:07;;;;;;;4.70;2.70;;;;;;;20.66;40.44;100981.50;4942484;29;20211;-71
2022/05/04 11:48:50;;;;;;;2.87;2.60;;;;;;;20.54;41.15;100974.28;4950340;29;20596;-71
2022/05/04 11:51:38;;;;;;;3.60;2.57;;;;;;;20.53;39.97;100972.59;4939847;29;20958;-73
2022/05/04 11:54:22;;;;;;;3.20;2.30;;;;;;;20.47;40.02;100978.25;4932742;29;20883;-71
2022/05/04 11:57:04;;;;;;;3.00;2.30;;;;;;;20.51;40.63;100964.75;4939341;29;20256;-71
2022/05/04 11:59:50;;;;;;;4.60;3.20;;;;;;;20.68;39.30;100978.75;4941590;28;20222;-72
2022/05/04 12:02:52;;;;;;;3.33;2.97;;;;;;;20.84;39.64;100974.16;4944199;29;20235;-71
2022/05/04 12:05:39;;;;;;;3.20;2.90;;;;;;;21.25;40.23;100967.13;4940967;28;20771;-71
2022/05/04 12:08:17;;;;;;;5.67;3.10;;;;;;;21.34;38.73;100963.91;4939203;28;20230;-71
2022/05/04 12:10:45;;;;;;;4.57;2.90;;;;;;;21.35;40.62;100955.84;4936964;29;20650;-71
2022/05/04 12:13:38;;;;;;;3.37;3.07;;;;;;;21.32;39.88;100958.69;4938597;29;20206;-71
2022/05/04 12:16:30;;;;;;;3.00;2.63;;;;;;;21.40;40.47;100952.03;4939004;29;20878;-71
2022/05/04 12:19:04;;;;;;;3.80;3.00;;;;;;;21.45;39.64;100960.53;4937314;29;20321;-72
2022/05/04 12:21:45;;;;;;;4.55;3.22;;;;;;;21.40;41.24;100941.44;4937473;28;20245;-71